Time;durP1;ratioP1;P1;durP2;ratioP2;P2;SDS_P1;SDS_P2;PMS_P1;PMS_P2;Temp;Humidity;BMP_temperature;BMP_pressure;BME280_temperature;BME280_humidity;BME280_pressure;Samples;Min_cycle;Max_cycle;Signal;HPM_P1;HPM_P2
2022/02/12 00:01:08;;;;;;;;;;;13.60;55.70;;;;;;5163067;27;20298;-70
2022/02/12 00:03:33;;;;;;;;;;;13.60;55.80;;;;;;5163056;27;19991;-69
2022/02/12 00:05:59;;;;;;;;;;;13.60;55.80;;;;;;5162871;27;19914;-69
2022/02/12 00:08:25;;;;;;;;;;;13.60;55.70;;;;;;5162852;27;19992;-69
2022/02/12 00:10:51;;;;;;;;;;;13.60;55.70;;;;;;5162832;27;19911;-70
2022/02/12 00:13:16;;;;;;;;;;;13.60;55.70;;;;;;5162850;27;19904;-69
2022/02/12 00:15:42;;;;;;;;;;;13.60;55.70;;;;;;5162818;27;20440;-70
2022/02/12 00:18:08;;;;;;;;;;;13.60;55.60;;;;;;5162696;27;20239;-69
2022/02/12 00:20:34;;;;;;;;;;;13.60;55.70;;;;;;5162715;27;19903;-71
2022/02/12 00:23:00;;;;;;;;;;;13.60;55.60;;;;;;5162606;27;19911;-70
2022/02/12 00:25:26;;;;;;;;;;;13.60;55.60;;;;;;5162465;27;20002;-70
2022/02/12 00:27:52;;;;;;;;;;;13.60;55.70;;;;;;5162614;27;19911;-70
2022/02/12 00:30:17;;;;;;;;;;;13.60;55.60;;;;;;5162552;27;20107;-70
2022/02/12 00:32:43;;;;;;;;;;;13.60;55.60;;;;;;5143970;27;19911;-70
2022/02/12 00:35:08;;;;;;;;;;;13.60;55.60;;;;;;5162401;27;20362;-71
2022/02/12 00:37:34;;;;;;;;;;;13.60;55.70;;;;;;5162312;27;19967;-69
2022/02/12 00:40:00;;;;;;;;;;;13.60;55.70;;;;;;5162271;27;19919;-70
2022/02/12 00:42:25;;;;;;;;;;;13.60;55.60;;;;;;5162336;27;19911;-70
2022/02/12 00:44:52;;;;;;;;;;;13.60;55.60;;;;;;5162154;27;19966;-70
2022/02/12 00:47:18;;;;;;;;;;;13.60;55.70;;;;;;5162206;27;19957;-71
2022/02/12 00:49:43;;;;;;;;;;;13.60;55.70;;;;;;5162210;27;20203;-70
2022/02/12 00:52:09;;;;;;;;;;;13.60;55.60;;;;;;5162178;27;19911;-70
2022/02/12 00:54:37;;;;;;;;;;;13.60;55.60;;;;;;5143600;27;20161;-70
2022/02/12 00:57:03;;;;;;;;;;;13.60;55.60;;;;;;5162060;27;19921;-69
2022/02/12 00:59:28;;;;;;;;;;;13.60;55.70;;;;;;5161964;27;19946;-71
2022/02/12 01:01:54;;;;;;;;;;;13.60;55.60;;;;;;5162052;27;20426;-70
2022/02/12 01:04:19;;;;;;;;;;;13.60;55.60;;;;;;5161904;27;19918;-70
2022/02/12 01:06:45;;;;;;;;;;;13.60;55.60;;;;;;5161698;27;20149;-70
2022/02/12 01:09:11;;;;;;;;;;;13.60;55.60;;;;;;5161973;27;19910;-70
2022/02/12 01:11:36;;;;;;;;;;;13.60;55.50;;;;;;5161893;27;19911;-70
2022/02/12 01:14:02;;;;;;;;;;;13.60;55.50;;;;;;5161755;27;19947;-70
2022/02/12 01:16:28;;;;;;;;;;;13.60;55.50;;;;;;5161786;27;20231;-70
2022/02/12 01:18:53;;;;;;;;;;;13.50;55.60;;;;;;5161797;27;19977;-70
2022/02/12 01:21:19;;;;;;;;;;;13.60;55.70;;;;;;5161789;27;19911;-70
2022/02/12 01:23:46;;;;;;;;;;;13.50;55.60;;;;;;5161747;27;19982;-71
2022/02/12 01:26:11;;;;;;;;;;;13.50;55.70;;;;;;5161579;27;19907;-70
2022/02/12 01:28:37;;;;;;;;;;;13.50;55.70;;;;;;5161698;27;20012;-70
2022/02/12 01:31:03;;;;;;;;;;;13.50;55.70;;;;;;5161620;27;19919;-71
2022/02/12 01:33:28;;;;;;;;;;;13.50;55.60;;;;;;5161653;27;19947;-70
2022/02/12 01:35:54;;;;;;;;;;;13.50;55.60;;;;;;5161629;27;20219;-71
2022/02/12 01:38:21;;;;;;;;;;;13.50;55.60;;;;;;5165494;27;19911;-70
2022/02/12 01:40:48;;;;;;;;;;;13.50;55.60;;;;;;5165868;27;19997;-70
2022/02/12 01:43:14;;;;;;;;;;;13.50;55.50;;;;;;5165885;27;19918;-70
2022/02/12 01:45:40;;;;;;;;;;;13.50;55.50;;;;;;5165763;27;19915;-71
2022/02/12 01:48:06;;;;;;;;;;;13.50;55.60;;;;;;5165784;27;19918;-70
2022/02/12 01:50:31;;;;;;;;;;;13.60;55.70;;;;;;5165761;27;20178;-71
2022/02/12 01:52:57;;;;;;;;;;;13.50;55.60;;;;;;5165758;27;19911;-70
2022/02/12 01:55:23;;;;;;;;;;;13.50;55.60;;;;;;5165680;27;19911;-69
2022/02/12 01:57:48;;;;;;;;;;;13.50;55.50;;;;;;5165582;27;20222;-70
2022/02/12 02:00:15;;;;;;;;;;;13.50;55.50;;;;;;5165565;27;19911;-70
2022/02/12 02:02:41;;;;;;;;;;;13.50;55.30;;;;;;5165532;27;19911;-69
2022/02/12 02:05:09;;;;;;;;;;;13.50;55.60;;;;;;5165167;27;20103;-70
2022/02/12 02:07:36;;;;;;;;;;;13.50;55.50;;;;;;5165288;27;19923;-70
2022/02/12 02:10:03;;;;;;;;;;;13.50;55.60;;;;;;5165356;27;20099;-70
2022/02/12 02:12:28;;;;;;;;;;;13.50;55.60;;;;;;5165377;27;20242;-70
2022/02/12 02:14:54;;;;;;;;;;;13.50;55.60;;;;;;5165367;27;19935;-70
2022/02/12 02:17:19;;;;;;;;;;;13.50;55.70;;;;;;5165239;27;20207;-70
2022/02/12 02:19:45;;;;;;;;;;;13.50;55.60;;;;;;5165233;27;20148;-70
2022/02/12 02:22:11;;;;;;;;;;;13.50;55.30;;;;;;5165114;27;19907;-69
2022/02/12 02:24:37;;;;;;;;;;;13.40;55.20;;;;;;5165135;27;19904;-69
2022/02/12 02:27:07;;;;;;;;;;;13.30;55.30;;;;;;5165044;27;19915;-69
2022/02/12 02:29:33;;;;;;;;;;;13.30;55.70;;;;;;5165051;27;19911;-70
2022/02/12 02:31:58;;;;;;;;;;;13.30;55.80;;;;;;5164982;27;19917;-70
2022/02/12 02:34:25;;;;;;;;;;;13.40;55.90;;;;;;5164970;27;19903;-70
2022/02/12 02:36:53;;;;;;;;;;;13.40;55.70;;;;;;5164914;27;20115;-70
2022/02/12 02:39:19;;;;;;;;;;;13.50;55.40;;;;;;5164836;27;19940;-70
2022/02/12 02:41:44;;;;;;;;;;;13.50;55.40;;;;;;5164787;27;19911;-69
2022/02/12 02:44:10;;;;;;;;;;;13.50;55.30;;;;;;5164672;27;19911;-71
2022/02/12 02:46:36;;;;;;;;;;;13.50;55.30;;;;;;5146070;27;19914;-70
2022/02/12 02:49:01;;;;;;;;;;;13.50;55.40;;;;;;5163223;27;20212;-69
2022/02/12 02:56:55;;;;;;;;;;;13.50;55.60;;;;;;5164595;27;19952;-70
2022/02/12 02:59:20;;;;;;;;;;;13.50;55.60;;;;;;5164422;27;20121;-70
2022/02/12 03:01:52;;;;;;;;;;;13.50;55.30;;;;;;5164413;27;20267;-70
2022/02/12 03:04:21;;;;;;;;;;;13.40;55.00;;;;;;5164414;27;20139;-69
2022/02/12 03:06:48;;;;;;;;;;;13.30;55.10;;;;;;5164124;27;19915;-70
2022/02/12 03:09:13;;;;;;;;;;;13.30;55.40;;;;;;5164331;27;19918;-69
2022/02/12 03:11:39;;;;;;;;;;;13.30;55.80;;;;;;5164233;27;19903;-70
2022/02/12 03:14:05;;;;;;;;;;;13.30;55.30;;;;;;5164209;27;20454;-70
2022/02/12 03:16:31;;;;;;;;;;;13.30;55.20;;;;;;5164132;27;19967;-70
2022/02/12 03:18:57;;;;;;;;;;;13.20;55.40;;;;;;5164121;27;19903;-72
2022/02/12 03:21:23;;;;;;;;;;;13.20;55.40;;;;;;5164039;27;19911;-70
2022/02/12 03:23:48;;;;;;;;;;;13.20;55.40;;;;;;5145446;27;19911;-70
2022/02/12 03:26:14;;;;;;;;;;;13.20;55.40;;;;;;5145257;27;19949;-70
2022/02/12 03:28:40;;;;;;;;;;;13.20;55.40;;;;;;5163966;27;20105;-70
2022/02/12 03:31:06;;;;;;;;;;;13.20;55.70;;;;;;5163890;27;20111;-70
2022/02/12 03:33:32;;;;;;;;;;;13.30;55.90;;;;;;5163790;27;19907;-70
2022/02/12 03:35:57;;;;;;;;;;;13.30;55.90;;;;;;5163888;27;19951;-70
2022/02/12 03:38:27;;;;;;;;;;;13.40;55.70;;;;;;5163709;27;19948;-70
2022/02/12 03:41:02;;;;;;;;;;;13.40;55.30;;;;;;5163665;27;19911;-70
2022/02/12 03:43:29;;;;;;;;;;;13.30;55.30;;;;;;5163648;27;20230;-70
2022/02/12 03:45:55;;;;;;;;;;;13.20;55.20;;;;;;5163474;27;19915;-69
2022/02/12 03:48:22;;;;;;;;;;;13.20;55.30;;;;;;5163506;27;19915;-70
2022/02/12 03:50:47;;;;;;;;;;;13.20;55.40;;;;;;5144901;27;19949;-70
2022/02/12 03:53:13;;;;;;;;;;;13.20;55.40;;;;;;5163433;27;19911;-70
2022/02/12 03:55:41;;;;;;;;;;;13.10;55.40;;;;;;5163338;27;19934;-70
2022/02/12 03:58:09;;;;;;;;;;;13.10;56.10;;;;;;5163328;27;19950;-69
2022/02/12 04:00:36;;;;;;;;;;;13.20;56.00;;;;;;5162942;27;19925;-70
2022/02/12 04:03:02;;;;;;;;;;;13.30;55.70;;;;;;5163250;27;19942;-69
2022/02/12 04:05:28;;;;;;;;;;;13.40;55.50;;;;;;5163090;27;19915;-70
2022/02/12 04:07:53;;;;;;;;;;;13.40;55.40;;;;;;5163031;27;19958;-70
2022/02/12 04:10:19;;;;;;;;;;;13.40;54.90;;;;;;5163067;27;19903;-70
2022/02/12 04:12:45;;;;;;;;;;;13.30;54.90;;;;;;5163066;27;19911;-70
2022/02/12 04:15:12;;;;;;;;;;;13.20;55.30;;;;;;5162984;27;19903;-69
2022/02/12 04:17:38;;;;;;;;;;;13.20;55.20;;;;;;5162922;27;20144;-70
2022/02/12 04:20:05;;;;;;;;;;;13.10;55.30;;;;;;5162950;27;20110;-69
2022/02/12 04:22:32;;;;;;;;;;;13.10;55.50;;;;;;5162849;27;20182;-70
2022/02/12 04:24:58;;;;;;;;;;;13.20;55.60;;;;;;5162669;27;19915;-70
2022/02/12 04:27:23;;;;;;;;;;;13.20;55.30;;;;;;5162801;27;19917;-69
2022/02/12 04:29:49;;;;;;;;;;;13.10;55.20;;;;;;5144072;27;19903;-69
2022/02/12 04:32:14;;;;;;;;;;;13.10;55.40;;;;;;5162626;27;19933;-70
2022/02/12 04:34:40;;;;;;;;;;;13.10;55.40;;;;;;5162577;27;19934;-69
2022/02/12 04:37:05;;;;;;;;;;;13.00;55.30;;;;;;5162649;27;19975;-69
2022/02/12 04:39:31;;;;;;;;;;;13.00;55.40;;;;;;5162394;27;19907;-69
2022/02/12 04:41:57;;;;;;;;;;;13.00;55.50;;;;;;5162449;27;19938;-69
2022/02/12 04:44:22;;;;;;;;;;;13.10;56.20;;;;;;5162338;27;20108;-70
2022/02/12 04:46:48;;;;;;;;;;;13.20;55.90;;;;;;5162379;27;20472;-70
2022/02/12 04:49:13;;;;;;;;;;;13.30;55.70;;;;;;5162316;27;19968;-70
2022/02/12 04:51:39;;;;;;;;;;;13.30;55.00;;;;;;5162268;27;19903;-70
2022/02/12 04:54:04;;;;;;;;;;;13.20;54.90;;;;;;5162196;27;19946;-70
2022/02/12 04:56:30;;;;;;;;;;;13.10;55.10;;;;;;5162124;27;19911;-70
2022/02/12 04:58:57;;;;;;;;;;;13.00;55.30;;;;;;5162187;27;19903;-70
2022/02/12 05:01:23;;;;;;;;;;;13.00;55.50;;;;;;5162020;27;19918;-69
2022/02/12 05:03:53;;;;;;;;;;;13.00;55.50;;;;;;5161998;27;19966;-70
2022/02/12 05:06:20;;;;;;;;;;;12.90;55.50;;;;;;5161944;27;20439;-70
2022/02/12 05:08:46;;;;;;;;;;;13.00;55.50;;;;;;5161930;27;20310;-70
2022/02/12 05:11:12;;;;;;;;;;;13.00;55.40;;;;;;5161181;27;20183;-70
2022/02/12 05:13:37;;;;;;;;;;;13.00;55.40;;;;;;5143268;27;19911;-70
2022/02/12 05:16:03;;;;;;;;;;;13.00;55.30;;;;;;5161806;27;19911;-70
2022/02/12 05:18:29;;;;;;;;;;;13.00;55.40;;;;;;5161996;27;20183;-70
2022/02/12 05:20:54;;;;;;;;;;;12.90;55.40;;;;;;5161747;27;19918;-70
2022/02/12 05:23:20;;;;;;;;;;;12.90;55.40;;;;;;5143021;27;20196;-70
2022/02/12 05:25:46;;;;;;;;;;;12.90;55.40;;;;;;5161586;27;19907;-69
2022/02/12 05:28:11;;;;;;;;;;;13.00;55.80;;;;;;5161658;27;20356;-70
2022/02/12 05:30:40;;;;;;;;;;;13.00;55.50;;;;;;5161627;27;19914;-70
2022/02/12 05:33:06;;;;;;;;;;;13.00;55.50;;;;;;5161601;27;19941;-69
2022/02/12 05:35:32;;;;;;;;;;;12.90;55.30;;;;;;5143013;27;20119;-69
2022/02/12 05:37:59;;;;;;;;;;;12.90;55.40;;;;;;5161541;27;19918;-69
2022/02/12 05:40:24;;;;;;;;;;;12.90;55.40;;;;;;5161537;27;19903;-70
2022/02/12 05:42:50;;;;;;;;;;;12.90;55.40;;;;;;5161509;27;19949;-70
2022/02/12 05:45:15;;;;;;;;;;;12.90;55.40;;;;;;5161370;27;19982;-70
2022/02/12 05:47:41;;;;;;;;;;;12.90;55.50;;;;;;5161478;27;19910;-70
2022/02/12 05:50:08;;;;;;;;;;;12.90;55.50;;;;;;5161495;27;20142;-70
2022/02/12 05:52:33;;;;;;;;;;;12.90;55.60;;;;;;5161426;27;19911;-69
2022/02/12 05:54:59;;;;;;;;;;;12.90;55.50;;;;;;5161330;27;19934;-70
2022/02/12 05:57:24;;;;;;;;;;;12.90;55.40;;;;;;5161380;27;19919;-70
2022/02/12 05:59:50;;;;;;;;;;;12.90;55.40;;;;;;5161284;27;19983;-70
2022/02/12 06:02:16;;;;;;;;;;;12.90;55.50;;;;;;5161384;27;19903;-69
2022/02/12 06:04:41;;;;;;;;;;;12.90;55.50;;;;;;5161227;27;19903;-70
2022/02/12 06:07:07;;;;;;;;;;;12.90;55.50;;;;;;5161179;27;20019;-70
2022/02/12 06:09:33;;;;;;;;;;;12.80;55.50;;;;;;5161284;27;19911;-70
2022/02/12 06:11:58;;;;;;;;;;;12.80;55.40;;;;;;5161215;27;20206;-71
2022/02/12 06:14:24;;;;;;;;;;;12.90;55.60;;;;;;5142639;27;20163;-70
2022/02/12 06:16:49;;;;;;;;;;;12.90;55.50;;;;;;5161237;27;19911;-69
2022/02/12 06:19:15;;;;;;;;;;;12.80;55.50;;;;;;5161182;27;19911;-70
2022/02/12 06:21:40;;;;;;;;;;;12.80;55.60;;;;;;5161156;27;19903;-70
2022/02/12 06:24:06;;;;;;;;;;;12.90;55.60;;;;;;5164326;27;19960;-70
2022/02/12 06:26:32;;;;;;;;;;;12.80;55.40;;;;;;5164901;27;19986;-70
2022/02/12 06:28:57;;;;;;;;;;;12.90;55.40;;;;;;5164918;27;20156;-69
2022/02/12 06:31:23;;;;;;;;;;;12.90;55.50;;;;;;5164954;27;20145;-70
2022/02/12 06:33:48;;;;;;;;;;;12.80;55.40;;;;;;5164788;27;19911;-71
2022/02/12 06:36:14;;;;;;;;;;;12.90;55.40;;;;;;5164786;27;19999;-71
2022/02/12 06:38:40;;;;;;;;;;;12.90;56.00;;;;;;5164707;27;20242;-73
2022/02/12 06:41:05;;;;;;;;;;;12.90;55.50;;;;;;5164703;27;19911;-70
2022/02/12 06:43:31;;;;;;;;;;;12.90;55.20;;;;;;5164604;27;20125;-70
2022/02/12 06:45:56;;;;;;;;;;;12.90;55.40;;;;;;5164469;27;19907;-70
2022/02/12 06:48:22;;;;;;;;;;;12.90;55.40;;;;;;5164529;27;19911;-70
2022/02/12 06:50:48;;;;;;;;;;;12.90;55.30;;;;;;5164497;27;20219;-70
2022/02/12 06:53:13;;;;;;;;;;;12.80;55.40;;;;;;5164447;27;19951;-70
2022/02/12 06:55:39;;;;;;;;;;;12.80;55.60;;;;;;5164471;27;19907;-70
2022/02/12 06:58:05;;;;;;;;;;;12.70;55.60;;;;;;5164915;27;20221;-70
2022/02/12 07:00:30;;;;;;;;;;;12.70;55.70;;;;;;5164364;27;19911;-68
2022/02/12 07:02:56;;;;;;;;;;;12.80;55.70;;;;;;5164321;27;20016;-70
2022/02/12 07:05:22;;;;;;;;;;;12.80;55.60;;;;;;5164205;27;19956;-70
2022/02/12 07:07:49;;;;;;;;;;;12.80;55.50;;;;;;5164092;27;19930;-70
2022/02/12 07:10:15;;;;;;;;;;;12.90;55.40;;;;;;5164170;27;19946;-70
2022/02/12 07:12:41;;;;;;;;;;;12.90;55.20;;;;;;5164098;27;19903;-69
2022/02/12 07:15:07;;;;;;;;;;;12.90;55.20;;;;;;5165633;27;19918;-70
2022/02/12 07:17:37;;;;;;;;;;;12.90;55.20;;;;;;5165351;27;19918;-70
2022/02/12 07:20:03;;;;;;;;;;;12.90;55.60;;;;;;5164318;27;20414;-70
2022/02/12 07:22:29;;;;;;;;;;;13.10;55.90;;;;;;5163929;27;19903;-70
2022/02/12 07:24:54;;;;;;;;;;;13.10;55.50;;;;;;5163839;27;19983;-70
2022/02/12 07:27:20;;;;;;;;;;;13.20;55.50;;;;;;5163771;27;19911;-70
2022/02/12 07:29:46;;;;;;;;;;;13.20;54.60;;;;;;5163819;27;20193;-69
2022/02/12 07:32:12;;;;;;;;;;;13.10;54.60;;;;;;5163615;27;20223;-70
2022/02/12 07:34:37;;;;;;;;;;;13.00;54.80;;;;;;5162861;27;19955;-70
2022/02/12 07:37:03;;;;;;;;;;;12.90;55.00;;;;;;5163664;27;19918;-70
2022/02/12 07:39:28;;;;;;;;;;;12.90;55.20;;;;;;5163583;27;19956;-70
2022/02/12 07:41:54;;;;;;;;;;;13.00;55.10;;;;;;5163509;27;19903;-70
2022/02/12 07:44:20;;;;;;;;;;;13.10;55.40;;;;;;5163500;27;20108;-70
2022/02/12 07:46:45;;;;;;;;;;;13.20;55.40;;;;;;5163274;27;19914;-70
2022/02/12 07:49:11;;;;;;;;;;;13.30;55.30;;;;;;5163302;27;19910;-69
2022/02/12 07:51:37;;;;;;;;;;;13.30;55.20;;;;;;5163353;27;20435;-70
2022/02/12 07:54:03;;;;;;;;;;;13.30;55.00;;;;;;5163220;27;19911;-69
2022/02/12 07:56:29;;;;;;;;;;;13.40;55.00;;;;;;5163192;27;19986;-70
2022/02/12 07:58:55;;;;;;;;;;;13.40;54.90;;;;;;5163166;27;19911;-70
2022/02/12 08:01:21;;;;;;;;;;;13.40;54.80;;;;;;5163155;27;19973;-70
2022/02/12 08:03:46;;;;;;;;;;;13.40;54.80;;;;;;5144520;27;19903;-69
2022/02/12 08:08:56;;;;;;;;;;;13.40;54.70;;;;;;5163012;27;19922;-70
2022/02/12 08:11:22;;;;;;;;;;;13.40;54.70;;;;;;5162884;27;19911;-69
2022/02/12 08:13:48;;;;;;;;;;;13.40;54.60;;;;;;5162837;27;20211;-69
2022/02/12 08:16:14;;;;;;;;;;;13.40;54.70;;;;;;5162801;27;20192;-70
2022/02/12 08:18:39;;;;;;;;;;;13.40;54.70;;;;;;5162730;27;19915;-70
2022/02/12 08:21:05;;;;;;;;;;;13.40;54.70;;;;;;5162816;27;19911;-70
2022/02/12 08:23:30;;;;;;;;;;;13.40;54.70;;;;;;5162605;27;19926;-69
2022/02/12 08:25:56;;;;;;;;;;;13.40;54.80;;;;;;5162524;27;20111;-69
2022/02/12 08:28:21;;;;;;;;;;;13.40;54.90;;;;;;5162617;27;19918;-69
2022/02/12 08:30:47;;;;;;;;;;;13.40;54.90;;;;;;5162559;27;19958;-70
2022/02/12 08:33:13;;;;;;;;;;;13.40;54.90;;;;;;5162524;27;19918;-69
2022/02/12 08:35:40;;;;;;;;;;;13.40;55.00;;;;;;5162471;27;20228;-69
2022/02/12 08:38:06;;;;;;;;;;;13.40;54.90;;;;;;5162372;27;19947;-70
2022/02/12 08:40:32;;;;;;;;;;;13.40;54.90;;;;;;5162282;27;19911;-70
2022/02/12 08:42:58;;;;;;;;;;;13.40;55.00;;;;;;5162280;27;19911;-70
2022/02/12 08:45:24;;;;;;;;;;;13.40;55.00;;;;;;5162135;27;19914;-70
2022/02/12 08:47:50;;;;;;;;;;;13.30;55.00;;;;;;5162283;27;19962;-69
2022/02/12 08:50:15;;;;;;;;;;;13.40;55.00;;;;;;5162247;27;19948;-69
2022/02/12 08:52:42;;;;;;;;;;;13.40;55.00;;;;;;5162139;27;20107;-69
2022/02/12 08:55:08;;;;;;;;;;;13.40;54.90;;;;;;5162087;27;19911;-69
2022/02/12 08:57:34;;;;;;;;;;;13.40;54.90;;;;;;5162192;27;20058;-70
2022/02/12 08:59:59;;;;;;;;;;;13.40;54.90;;;;;;5162016;27;19911;-70
2022/02/12 09:02:25;;;;;;;;;;;13.40;54.90;;;;;;5162074;27;19911;-69
2022/02/12 09:04:51;;;;;;;;;;;13.40;54.90;;;;;;5161796;27;19904;-70
2022/02/12 09:07:16;;;;;;;;;;;13.40;54.90;;;;;;5139753;27;19951;-69
2022/02/12 09:09:42;;;;;;;;;;;13.40;55.00;;;;;;5141157;27;20227;-69
2022/02/12 09:12:11;;;;;;;;;;;13.50;55.00;;;;;;5141365;27;19912;-70
2022/02/12 09:14:37;;;;;;;;;;;13.40;54.90;;;;;;5142182;27;20095;-69
2022/02/12 09:17:03;;;;;;;;;;;13.40;55.00;;;;;;5141073;27;19912;-70
2022/02/12 09:19:29;;;;;;;;;;;13.40;55.00;;;;;;5140991;27;19948;-69
2022/02/12 09:21:55;;;;;;;;;;;13.40;55.10;;;;;;5141043;27;19941;-69
2022/02/12 09:24:20;;;;;;;;;;;13.40;55.10;;;;;;5140966;27;19918;-70
2022/02/12 09:26:46;;;;;;;;;;;13.40;55.10;;;;;;5140898;27;19915;-70
2022/02/12 09:29:12;;;;;;;;;;;13.40;55.10;;;;;;5140849;27;20219;-70
2022/02/12 09:31:38;;;;;;;;;;;13.40;55.10;;;;;;5140927;28;19945;-69
2022/02/12 09:34:05;;;;;;;;;;;13.40;55.10;;;;;;5139665;28;19912;-69
2022/02/12 09:36:31;;;;;;;;;;;13.40;55.20;;;;;;5139695;28;19910;-69
2022/02/12 09:38:57;;;;;;;;;;;13.40;55.00;;;;;;5139484;28;19911;-69
2022/02/12 09:41:23;;;;;;;;;;;13.40;55.10;;;;;;5139519;28;19918;-71
2022/02/12 09:43:50;;;;;;;;;;;13.40;55.80;;;;;;5140756;28;19903;-70
2022/02/12 09:46:18;;;;;;;;;;;13.40;55.10;;;;;;5140750;28;19915;-70
2022/02/12 09:48:46;;;;;;;;;;;13.40;55.10;;;;;;5140795;28;19910;-70
2022/02/12 09:51:13;;;;;;;;;;;13.50;55.10;;;;;;5139365;28;20310;-69
2022/02/12 09:53:39;;;;;;;;;;;13.40;55.20;;;;;;5140704;28;20016;-70
2022/02/12 09:56:05;;;;;;;;;;;13.40;55.30;;;;;;5139347;28;20216;-69
2022/02/12 09:58:30;;;;;;;;;;;13.40;55.20;;;;;;5142936;27;19911;-70
2022/02/12 10:00:56;;;;;;;;;;;13.40;55.40;;;;;;5144705;27;19926;-70
2022/02/12 10:03:22;;;;;;;;;;;13.40;55.40;;;;;;5144773;27;20229;-70
2022/02/12 10:05:54;;;;;;;;;;;13.40;55.40;;;;;;5144662;27;19916;-69
2022/02/12 10:08:21;;;;;;;;;;;13.40;55.30;;;;;;5158116;27;19915;-70
2022/02/12 10:10:47;;;;;;;;;;;13.50;55.30;;;;;;5165375;27;20111;-70
2022/02/12 10:13:19;;;;;;;;;;;13.50;55.30;;;;;;5165253;27;19918;-69
2022/02/12 10:15:54;;;;;;;;;;;13.50;55.30;;;;;;5165292;27;19918;-70
2022/02/12 10:18:23;;;;;;;;;;;13.50;55.10;;;;;;5165159;27;19975;-69
2022/02/12 10:20:50;;;;;;;;;;;13.50;55.10;;;;;;5165079;27;20192;-70
2022/02/12 10:23:25;;;;;;;;;;;13.50;55.20;;;;;;5165191;27;19981;-70
2022/02/12 10:26:11;;;;;;;;;;;13.50;55.20;;;;;;5165031;27;19947;-70
2022/02/12 10:28:38;;;;;;;;;;;13.50;55.30;;;;;;5164468;27;20429;-69
2022/02/12 10:31:04;;;;;;;;;;;13.50;55.40;;;;;;5164783;27;19978;-68
2022/02/12 10:33:31;;;;;;;;;;;13.50;55.50;;;;;;5164888;27;19915;-70
2022/02/12 10:36:03;;;;;;;;;;;13.50;55.40;;;;;;5164895;27;19937;-70
2022/02/12 10:38:31;;;;;;;;;;;13.50;55.40;;;;;;5164761;27;19950;-69
2022/02/12 10:41:04;;;;;;;;;;;13.50;55.40;;;;;;5164798;27;20023;-70
2022/02/12 10:43:30;;;;;;;;;;;13.50;55.40;;;;;;5164616;27;19911;-70
2022/02/12 10:45:56;;;;;;;;;;;13.50;55.50;;;;;;5164640;27;19951;-70
2022/02/12 10:48:23;;;;;;;;;;;13.60;55.40;;;;;;5164620;27;19911;-69
2022/02/12 10:50:57;;;;;;;;;;;13.60;55.20;;;;;;5164569;27;19946;-69
2022/02/12 10:53:23;;;;;;;;;;;13.60;55.40;;;;;;5164527;27;19911;-69
2022/02/12 10:55:56;;;;;;;;;;;13.60;55.40;;;;;;5164460;27;19948;-69
2022/02/12 10:58:23;;;;;;;;;;;13.60;55.50;;;;;;5164407;27;19997;-69
2022/02/12 11:00:49;;;;;;;;;;;13.60;55.50;;;;;;5164688;27;19903;-69
2022/02/12 11:03:16;;;;;;;;;;;13.60;55.40;;;;;;5164306;27;19911;-70
2022/02/12 11:05:43;;;;;;;;;;;13.60;55.40;;;;;;5164223;27;19921;-70
2022/02/12 11:08:09;;;;;;;;;;;13.60;55.50;;;;;;5164012;27;20171;-70
2022/02/12 11:10:36;;;;;;;;;;;13.60;55.50;;;;;;5162950;27;19999;-70
2022/02/12 11:13:03;;;;;;;;;;;13.60;55.50;;;;;;5164080;27;19903;-69
2022/02/12 11:15:29;;;;;;;;;;;13.60;55.50;;;;;;5164012;27;19938;-70
2022/02/12 11:17:55;;;;;;;;;;;13.70;56.10;;;;;;5164020;27;19903;-70
2022/02/12 11:20:22;;;;;;;;;;;13.70;55.40;;;;;;5163997;27;19903;-69
2022/02/12 11:22:50;;;;;;;;;;;13.70;55.50;;;;;;5163859;27;19911;-69
2022/02/12 11:25:34;;;;;;;;;;;13.70;55.30;;;;;;5163763;27;19952;-69
2022/02/12 11:28:11;;;;;;;;;;;13.70;55.50;;;;;;5163797;27;19918;-69
2022/02/12 11:30:40;;;;;;;;;;;13.70;55.40;;;;;;5164042;27;19979;-69
2022/02/12 11:33:08;;;;;;;;;;;13.70;55.40;;;;;;5163765;27;19919;-69
2022/02/12 11:35:34;;;;;;;;;;;13.70;56.00;;;;;;5163670;27;19911;-70
2022/02/12 11:38:00;;;;;;;;;;;13.70;55.60;;;;;;5163523;27;19904;-70
2022/02/12 11:40:28;;;;;;;;;;;13.70;55.60;;;;;;5163575;27;19911;-70
2022/02/12 11:43:16;;;;;;;;;;;13.70;55.30;;;;;;5163534;27;19987;-70
2022/02/12 11:45:43;;;;;;;;;;;13.70;55.20;;;;;;5160846;27;19915;-69
2022/02/12 11:48:19;;;;;;;;;;;13.70;55.30;;;;;;5163384;27;20008;-69
2022/02/12 11:50:55;;;;;;;;;;;13.70;55.30;;;;;;5163383;27;20253;-71
2022/02/12 11:53:29;;;;;;;;;;;13.80;55.60;;;;;;5163267;27;19911;-71
2022/02/12 11:55:55;;;;;;;;;;;13.70;55.50;;;;;;5163535;27;19948;-70
2022/02/12 11:58:41;;;;;;;;;;;13.80;55.70;;;;;;5144549;27;19907;-70
2022/02/12 12:01:22;;;;;;;;;;;13.80;55.70;;;;;;5144791;27;19919;-69
2022/02/12 12:04:01;;;;;;;;;;;13.80;55.70;;;;;;5163069;27;19911;-69
2022/02/12 12:06:26;;;;;;;;;;;13.80;55.70;;;;;;5162997;27;19914;-70
2022/02/12 12:09:11;;;;;;;;;;;13.80;55.60;;;;;;5162895;27;20120;-70
2022/02/12 12:11:38;;;;;;;;;;;13.80;55.70;;;;;;5163004;27;19903;-70
2022/02/12 12:14:21;;;;;;;;;;;13.80;55.80;;;;;;5162893;27;20207;-72
2022/02/12 12:16:53;;;;;;;;;;;13.80;55.80;;;;;;5162825;27;19911;-70
2022/02/12 12:19:20;;;;;;;;;;;13.80;55.60;;;;;;5162838;27;19911;-70
2022/02/12 12:21:46;;;;;;;;;;;13.80;55.50;;;;;;5162453;27;19911;-70
2022/02/12 12:24:12;;;;;;;;;;;13.80;55.50;;;;;;5162601;27;19994;-69
2022/02/12 12:26:41;;;;;;;;;;;13.90;55.40;;;;;;5162512;27;20398;-71
2022/02/12 12:31:52;;;;;;;;;;;13.90;55.60;;;;;;5162514;27;19967;-70
2022/02/12 12:34:18;;;;;;;;;;;13.90;55.60;;;;;;5162617;27;20262;-70
2022/02/12 12:36:43;;;;;;;;;;;13.90;55.60;;;;;;5162412;27;19956;-70
2022/02/12 12:39:10;;;;;;;;;;;13.90;55.70;;;;;;5162411;27;19911;-70
2022/02/12 12:41:38;;;;;;;;;;;13.90;55.60;;;;;;5162371;27;19938;-70
2022/02/12 12:44:17;;;;;;;;;;;13.90;55.60;;;;;;5162300;27;20211;-69
2022/02/12 12:46:46;;;;;;;;;;;13.90;55.60;;;;;;5162233;27;19915;-70
2022/02/12 12:49:24;;;;;;;;;;;13.90;55.80;;;;;;5162233;27;19911;-69
2022/02/12 12:51:50;;;;;;;;;;;13.90;55.70;;;;;;5143612;27;20099;-70
2022/02/12 12:54:25;;;;;;;;;;;13.90;55.80;;;;;;5162147;27;19903;-69
2022/02/12 12:56:50;;;;;;;;;;;13.90;55.50;;;;;;5162123;27;19911;-69
2022/02/12 12:59:18;;;;;;;;;;;13.90;55.60;;;;;;5162090;27;19943;-69
2022/02/12 13:01:55;;;;;;;;;;;13.90;55.40;;;;;;5161949;27;19918;-69
2022/02/12 13:04:21;;;;;;;;;;;13.90;55.50;;;;;;5161951;27;19930;-68
2022/02/12 13:06:51;;;;;;;;;;;13.90;55.70;;;;;;5161716;27;20260;-68
2022/02/12 13:09:17;;;;;;;;;;;14.00;55.70;;;;;;5161890;27;20108;-70
2022/02/12 13:11:43;;;;;;;;;;;14.00;55.70;;;;;;5161894;27;19974;-69
2022/02/12 13:14:08;;;;;;;;;;;14.00;55.80;;;;;;5161722;27;19952;-69
2022/02/12 13:16:39;;;;;;;;;;;14.00;55.70;;;;;;5161780;27;19939;-70
2022/02/12 13:19:15;;;;;;;;;;;14.00;55.50;;;;;;5161666;27;20214;-70
2022/02/12 13:21:45;;;;;;;;;;;14.00;55.60;;;;;;5143224;27;19911;-70
2022/02/12 13:24:11;;;;;;;;;;;14.00;56.10;;;;;;5161612;27;19917;-71
2022/02/12 13:26:37;;;;;;;;;;;14.00;55.70;;;;;;5161647;27;19938;-70
2022/02/12 13:29:16;;;;;;;;;;;14.00;55.60;;;;;;5161711;27;19938;-70
2022/02/12 13:31:44;;;;;;;;;;;14.00;55.60;;;;;;5161445;27;20094;-70
2022/02/12 13:34:11;;;;;;;;;;;14.00;55.60;;;;;;5161199;27;19915;-70
2022/02/12 13:36:43;;;;;;;;;;;14.00;55.60;;;;;;5161606;27;19904;-70
2022/02/12 13:39:09;;;;;;;;;;;14.00;55.80;;;;;;5161544;27;19914;-70
2022/02/12 13:41:41;;;;;;;;;;;14.00;55.70;;;;;;5161486;27;20282;-70
2022/02/12 13:44:06;;;;;;;;;;;14.10;55.30;;;;;;5161519;27;19910;-70
2022/02/12 13:46:35;;;;;;;;;;;14.10;55.70;;;;;;5161486;27;19919;-71
2022/02/12 13:49:13;;;;;;;;;;;14.10;55.70;;;;;;5161449;27;19951;-70
2022/02/12 13:51:49;;;;;;;;;;;14.10;55.70;;;;;;5161491;27;20142;-70
2022/02/12 13:54:14;;;;;;;;;;;14.20;55.70;;;;;;5161487;27;19903;-70
2022/02/12 13:56:41;;;;;;;;;;;14.20;55.50;;;;;;5161411;27;20226;-70
2022/02/12 13:59:07;;;;;;;;;;;14.20;55.30;;;;;;5161413;27;20119;-69
2022/02/12 14:01:33;;;;;;;;;;;14.10;55.10;;;;;;5161275;27;19918;-70
2022/02/12 14:03:58;;;;;;;;;;;14.20;55.50;;;;;;5161002;27;20089;-70
2022/02/12 14:06:24;;;;;;;;;;;14.10;55.50;;;;;;5161272;27;20251;-70
2022/02/12 14:08:50;;;;;;;;;;;14.20;55.40;;;;;;5142663;27;19930;-70
2022/02/12 14:11:18;;;;;;;;;;;14.20;55.60;;;;;;5161193;27;19943;-70
2022/02/12 14:13:43;;;;;;;;;;;14.20;55.70;;;;;;5161302;27;19911;-70
2022/02/12 14:16:09;;;;;;;;;;;14.20;55.60;;;;;;5161108;27;19903;-70
2022/02/12 14:18:35;;;;;;;;;;;14.30;55.60;;;;;;5161264;27;20119;-69
2022/02/12 14:21:01;;;;;;;;;;;14.30;55.60;;;;;;5161074;27;19907;-70
2022/02/12 14:23:27;;;;;;;;;;;14.30;55.20;;;;;;5161120;27;19911;-71
2022/02/12 14:25:52;;;;;;;;;;;14.30;55.50;;;;;;5161018;27;20002;-71